createdAt,value
2023-05-19T00:01:39.449Z,892.50
2023-05-19T00:04:07.124Z,880.78
2023-05-19T00:06:33.821Z,889.65
2023-05-19T00:09:00.510Z,858.97
2023-05-19T00:11:27.264Z,853.92
2023-05-19T00:13:54.270Z,858.55
2023-05-19T00:16:20.945Z,860.28
2023-05-19T00:18:48.358Z,855.88
2023-05-19T00:21:15.187Z,887.90
2023-05-19T00:23:41.907Z,874.65
2023-05-19T00:26:08.589Z,864.72
2023-05-19T00:28:35.368Z,874.80
2023-05-19T00:31:02.326Z,818.10
2023-05-19T00:33:28.971Z,802.38
2023-05-19T00:35:55.740Z,822.40
2023-05-19T00:38:22.367Z,801.28
2023-05-19T00:40:49.021Z,803.13
2023-05-19T00:43:15.721Z,832.13
2023-05-19T00:45:42.506Z,811.03
2023-05-19T00:48:09.336Z,779.92
2023-05-19T00:50:36.235Z,798.83
2023-05-19T00:53:02.914Z,788.72
2023-05-19T00:55:29.530Z,923.08
2023-05-19T00:57:56.202Z,950.40
2023-05-19T01:00:22.844Z,960.47
2023-05-19T01:02:50.395Z,905.38
2023-05-19T01:05:17.144Z,878.33
2023-05-19T01:07:43.805Z,874.15
2023-05-19T01:10:10.479Z,840.35
2023-05-19T01:12:37.141Z,954.67
2023-05-19T01:15:03.845Z,934.50
2023-05-19T01:17:30.529Z,872.90
2023-05-19T01:19:57.485Z,897.67
2023-05-19T01:22:24.235Z,870.85
2023-05-19T01:24:51.041Z,893.40
2023-05-19T01:27:17.707Z,890.88
2023-05-19T01:29:44.315Z,858.55
2023-05-19T01:32:11.241Z,922.25
2023-05-19T01:34:37.967Z,846.63
2023-05-19T01:37:04.600Z,844.72
2023-05-19T01:39:31.303Z,927.53
2023-05-19T01:41:58.098Z,950.22
2023-05-19T01:44:24.730Z,994.63
2023-05-19T01:46:51.342Z,1032.47
2023-05-19T01:49:17.977Z,1075.88
2023-05-19T01:51:44.622Z,1073.38
2023-05-19T01:54:11.284Z,1439.30
2023-05-19T01:56:37.901Z,1365.85
2023-05-19T01:59:04.573Z,728.15
2023-05-19T02:01:31.277Z,7.88
2023-05-19T02:03:57.944Z,4.13
2023-05-19T02:06:24.618Z,4.00
2023-05-19T02:08:51.253Z,6.90
2023-05-19T02:11:17.916Z,6.22
2023-05-19T02:13:44.799Z,6.72
2023-05-19T02:16:11.502Z,5.88
2023-05-19T02:18:38.184Z,5.65
2023-05-19T02:21:04.909Z,8.75
2023-05-19T02:23:31.629Z,8.20
2023-05-19T02:25:58.292Z,11.75
2023-05-19T02:28:28.376Z,6.55
2023-05-19T02:30:55.079Z,4.80
2023-05-19T02:33:24.695Z,9.30
2023-05-19T02:35:51.335Z,5.03
2023-05-19T02:38:18.179Z,7.00
2023-05-19T02:40:44.800Z,7.60
2023-05-19T02:43:11.455Z,5.68
2023-05-19T02:45:38.103Z,5.75
2023-05-19T02:48:04.791Z,7.43
2023-05-19T02:50:31.676Z,3.95
2023-05-19T02:52:58.446Z,5.70
2023-05-19T02:55:25.150Z,8.20
2023-05-19T02:57:51.824Z,11.63
2023-05-19T03:00:18.441Z,3.17
2023-05-19T03:02:45.189Z,4.35
2023-05-19T03:05:11.870Z,4.22
2023-05-19T03:07:38.552Z,6.25
2023-05-19T03:10:06.681Z,4.88
2023-05-19T03:12:33.643Z,83.40
2023-05-19T03:15:00.355Z,30.67
2023-05-19T03:17:28.727Z,431.80
2023-05-19T03:19:55.815Z,6.93
2023-05-19T03:22:22.480Z,98.05
2023-05-19T03:24:51.138Z,71.35
2023-05-19T03:27:17.816Z,5.90
2023-05-19T03:29:44.519Z,8.15
2023-05-19T03:32:11.185Z,5.13
2023-05-19T03:34:37.821Z,76.78
2023-05-19T03:37:04.477Z,153.82
2023-05-19T03:39:31.144Z,364.23
2023-05-19T03:41:57.814Z,1088.40
2023-05-19T03:44:24.465Z,263.15
2023-05-19T03:46:51.129Z,68.95
2023-05-19T03:49:17.790Z,8.10
2023-05-19T03:51:44.478Z,365.45
2023-05-19T03:54:11.277Z,73.20
2023-05-19T03:56:37.984Z,540.30
2023-05-19T03:59:06.232Z,5.72
2023-05-19T04:01:32.872Z,1211.63
2023-05-19T04:03:59.589Z,274.85
2023-05-19T04:06:26.258Z,6.57
2023-05-19T04:08:52.930Z,44.05
2023-05-19T04:11:22.663Z,7.65
2023-05-19T04:13:49.335Z,56.22
2023-05-19T04:16:16.015Z,50.88
2023-05-19T04:18:42.749Z,79.78
2023-05-19T04:21:09.444Z,17.45
2023-05-19T04:23:36.120Z,56.05
2023-05-19T04:26:03.681Z,28.77
2023-05-19T04:28:30.443Z,48.67
2023-05-19T04:30:58.831Z,82.43
2023-05-19T04:33:25.569Z,22.17
2023-05-19T04:35:52.249Z,40.75
2023-05-19T04:38:20.141Z,12.50
2023-05-19T04:40:50.405Z,223.75
2023-05-19T04:43:18.150Z,30.02
2023-05-19T04:45:44.808Z,62.80
2023-05-19T04:48:12.266Z,86.07
2023-05-19T04:50:42.142Z,237.52
2023-05-19T04:53:08.797Z,69.90
2023-05-19T04:55:35.493Z,14.82
2023-05-19T04:58:02.136Z,882.33
2023-05-19T05:00:29.670Z,1353.38
2023-05-19T05:02:57.722Z,1352.93
2023-05-19T05:05:24.851Z,1371.85
2023-05-19T05:07:54.153Z,1347.22
2023-05-19T05:10:21.817Z,1369.47
2023-05-19T05:12:48.489Z,1297.65
2023-05-19T05:15:15.121Z,1025.13
2023-05-19T05:17:41.798Z,1092.57
2023-05-19T05:20:08.448Z,1044.57
2023-05-19T05:22:35.103Z,1106.88
2023-05-19T05:25:01.914Z,1008.08
2023-05-19T05:27:28.597Z,1061.63
2023-05-19T05:29:56.427Z,995.65
2023-05-19T05:32:24.145Z,1066.93
2023-05-19T05:34:50.918Z,1049.60
2023-05-19T05:37:17.586Z,969.55
2023-05-19T05:39:44.245Z,1021.15
2023-05-19T05:42:10.895Z,964.63
2023-05-19T05:44:37.587Z,973.72
2023-05-19T05:47:04.334Z,998.97
2023-05-19T05:49:30.979Z,1001.45
2023-05-19T05:52:05.847Z,1102.15
2023-05-19T05:54:33.387Z,924.58
2023-05-19T05:57:00.034Z,914.17
2023-05-19T05:59:26.687Z,915.80
2023-05-19T06:01:53.405Z,950.00
2023-05-19T06:04:21.357Z,1162.18
2023-05-19T06:06:48.537Z,970.22
2023-05-19T06:09:15.279Z,998.05
2023-05-19T06:11:41.946Z,1000.33
2023-05-19T06:14:08.642Z,1043.57
2023-05-19T06:16:35.489Z,952.78
2023-05-19T06:19:02.359Z,958.10
2023-05-19T06:21:29.002Z,956.85
2023-05-19T06:23:55.697Z,999.85
2023-05-19T06:26:22.574Z,985.90
2023-05-19T06:28:49.224Z,980.50
2023-05-19T06:31:16.587Z,1036.28
2023-05-19T06:33:43.271Z,975.55
2023-05-19T06:36:10.741Z,1062.57
2023-05-19T06:38:37.439Z,996.53
2023-05-19T06:41:04.129Z,1012.45
2023-05-19T06:43:30.821Z,1034.88
2023-05-19T06:45:57.634Z,1074.15
2023-05-19T06:48:24.280Z,1055.05
2023-05-19T06:50:51.033Z,966.85
2023-05-19T06:53:17.781Z,940.35
2023-05-19T06:55:54.788Z,953.95
2023-05-19T06:58:26.782Z,1087.45
2023-05-19T07:00:53.558Z,1014.45
2023-05-19T07:03:20.406Z,998.20
2023-05-19T07:05:47.479Z,997.60
2023-05-19T07:08:14.309Z,1032.75
2023-05-19T07:10:40.921Z,1108.05
2023-05-19T07:13:07.640Z,1008.78
2023-05-19T07:15:34.328Z,1020.03
2023-05-19T07:18:01.118Z,1014.58
2023-05-19T07:20:27.820Z,907.83
2023-05-19T07:22:54.423Z,985.83
2023-05-19T07:25:21.181Z,900.38
2023-05-19T07:27:47.873Z,864.83
2023-05-19T07:30:14.523Z,907.45
2023-05-19T07:32:41.237Z,902.25
2023-05-19T07:35:07.981Z,925.08
2023-05-19T07:37:34.710Z,1048.88
2023-05-19T07:40:01.348Z,1047.50
2023-05-19T07:42:28.030Z,996.40
2023-05-19T07:44:54.669Z,977.88
2023-05-19T07:47:21.426Z,885.55
2023-05-19T07:49:50.280Z,926.90
2023-05-19T07:52:18.527Z,931.90
2023-05-19T07:54:45.230Z,880.63
2023-05-19T07:57:11.894Z,870.67
2023-05-19T07:59:38.562Z,932.50
2023-05-19T08:02:05.272Z,895.53
2023-05-19T08:04:31.989Z,883.00
2023-05-19T08:06:59.093Z,895.47
2023-05-19T08:09:26.116Z,924.05
2023-05-19T08:11:52.755Z,957.50
2023-05-19T08:14:20.603Z,17.15
2023-05-19T08:16:47.443Z,914.90
2023-05-19T08:19:14.094Z,956.28
2023-05-19T08:21:42.300Z,939.22
2023-05-19T08:24:09.010Z,930.33
2023-05-19T08:26:37.576Z,930.83
2023-05-19T08:29:04.703Z,945.65
2023-05-19T08:31:31.472Z,948.85
2023-05-19T08:33:58.221Z,934.45
2023-05-19T08:36:24.950Z,1019.00
2023-05-19T08:38:51.695Z,934.78
2023-05-19T08:41:18.374Z,945.00
2023-05-19T08:43:45.455Z,944.28
2023-05-19T08:46:12.222Z,945.50
2023-05-19T08:48:38.922Z,947.75
2023-05-19T08:51:05.562Z,933.13
2023-05-19T08:53:34.368Z,928.25
2023-05-19T08:56:01.488Z,940.03
2023-05-19T08:58:28.893Z,906.25
2023-05-19T09:00:55.668Z,963.28
2023-05-19T09:03:23.954Z,949.65
2023-05-19T09:05:51.030Z,959.63
2023-05-19T09:08:18.473Z,928.30
2023-05-19T09:10:45.170Z,979.65
2023-05-19T09:13:11.890Z,1024.82
2023-05-19T09:15:38.538Z,909.60
2023-05-19T09:18:05.255Z,990.63
2023-05-19T09:20:32.012Z,1002.60
2023-05-19T09:22:58.702Z,1056.43
2023-05-19T09:25:25.397Z,973.08
2023-05-19T09:27:52.113Z,917.05
2023-05-19T09:30:19.565Z,1018.13
2023-05-19T09:32:48.631Z,1105.22
2023-05-19T09:35:20.665Z,953.80
2023-05-19T09:37:47.338Z,1007.08
2023-05-19T09:40:13.997Z,1026.88
2023-05-19T09:42:40.712Z,1018.83
2023-05-19T09:45:07.406Z,1055.30
2023-05-19T09:47:34.146Z,926.55
2023-05-19T09:50:00.831Z,938.95
2023-05-19T09:52:27.499Z,960.88
2023-05-19T09:54:56.141Z,1079.35
2023-05-19T09:57:23.206Z,998.17
2023-05-19T09:59:49.896Z,948.88
2023-05-19T10:02:16.586Z,972.38
2023-05-19T10:04:43.320Z,992.60
2023-05-19T10:07:10.061Z,996.63
2023-05-19T10:09:36.878Z,972.58
2023-05-19T10:12:03.557Z,1044.20
2023-05-19T10:14:30.278Z,1017.22
2023-05-19T10:16:57.090Z,955.85
2023-05-19T10:19:24.001Z,1006.20
2023-05-19T10:21:51.120Z,1015.40
2023-05-19T10:24:17.920Z,1028.50
2023-05-19T10:26:44.572Z,937.92
2023-05-19T10:29:11.325Z,1030.25
2023-05-19T10:31:38.065Z,1127.50
2023-05-19T10:34:04.910Z,1113.47
2023-05-19T10:36:32.081Z,1078.68
2023-05-19T10:38:58.763Z,1134.45
2023-05-19T10:41:26.132Z,1121.13
2023-05-19T10:43:52.796Z,801.72
2023-05-19T10:46:19.555Z,9.48
2023-05-19T10:48:46.600Z,15.15
2023-05-19T10:51:13.342Z,14.30
2023-05-19T10:53:40.012Z,79.10
2023-05-19T10:56:08.157Z,7.38
2023-05-19T10:58:34.878Z,119.20
2023-05-19T11:01:01.771Z,1078.85
2023-05-19T11:03:28.457Z,335.60
2023-05-19T11:05:55.114Z,713.33
2023-05-19T11:08:21.821Z,1409.82
2023-05-19T11:10:48.524Z,1439.28
2023-05-19T11:13:15.167Z,1395.38
2023-05-19T11:15:41.829Z,1288.50
2023-05-19T11:18:08.575Z,1217.55
2023-05-19T11:20:35.379Z,1328.15
2023-05-19T11:23:02.663Z,1279.80
2023-05-19T11:25:29.368Z,1362.13
2023-05-19T11:27:56.035Z,1454.35
2023-05-19T11:30:23.249Z,1291.57
2023-05-19T11:32:49.962Z,1423.18
2023-05-19T11:35:16.943Z,1446.57
2023-05-19T11:37:43.658Z,1478.15
2023-05-19T11:40:11.025Z,1318.80
2023-05-19T11:42:37.760Z,1488.07
2023-05-19T11:45:04.653Z,1181.85
2023-05-19T11:47:36.390Z,1414.65
2023-05-19T11:50:09.535Z,1410.72
2023-05-19T11:52:36.224Z,1305.00
2023-05-19T12:12:17.062Z,1419.13
2023-05-19T12:14:43.777Z,4.65
2023-05-19T12:17:10.499Z,97.22
2023-05-19T12:19:37.386Z,1136.57
2023-05-19T12:22:04.221Z,1435.07
2023-05-19T12:24:30.888Z,1395.30
2023-05-19T12:26:57.593Z,1389.40
2023-05-19T12:29:24.753Z,1432.65
2023-05-19T12:31:51.457Z,1436.65
2023-05-19T12:34:18.420Z,1438.80
2023-05-19T12:36:45.081Z,1408.80
2023-05-19T12:39:11.939Z,1468.85
2023-05-19T12:41:38.608Z,1450.88
2023-05-19T12:44:05.259Z,1405.05
2023-05-19T12:46:31.949Z,1360.40
2023-05-19T12:48:58.623Z,1262.57
2023-05-19T12:51:25.316Z,1322.55
2023-05-19T12:53:52.044Z,1366.57
2023-05-19T12:56:18.915Z,1351.68
2023-05-19T12:58:46.092Z,1362.20
2023-05-19T13:01:12.964Z,1417.20
2023-05-19T13:03:39.703Z,1349.53
2023-05-19T13:06:06.628Z,1343.18
2023-05-19T13:08:33.824Z,1463.32
2023-05-19T13:11:00.462Z,9.95
2023-05-19T13:13:27.108Z,27.95
2023-05-19T13:15:53.909Z,9.27
2023-05-19T13:18:20.553Z,1287.50
2023-05-19T13:20:47.481Z,6.75
2023-05-19T13:23:14.301Z,102.82
2023-05-19T13:25:41.419Z,6.28
2023-05-19T13:28:08.171Z,8.52
2023-05-19T13:30:35.091Z,8.57
2023-05-19T13:33:02.219Z,5.50
2023-05-19T13:35:29.047Z,7.00
2023-05-19T13:37:55.758Z,13.50
2023-05-19T13:40:23.999Z,9.07
2023-05-19T13:42:50.772Z,9.27
2023-05-19T13:45:18.396Z,5.07
2023-05-19T13:47:45.141Z,8.90
2023-05-19T13:50:12.430Z,6.57
2023-05-19T13:52:39.268Z,23.45
2023-05-19T13:55:06.032Z,15.27
2023-05-19T13:57:33.191Z,9.93
2023-05-19T14:00:03.316Z,6.93
2023-05-19T14:04:57.911Z,9.13
2023-05-19T14:07:25.585Z,9.13
2023-05-19T14:09:52.503Z,6.57
2023-05-19T14:12:20.247Z,7.45
2023-05-19T14:14:50.182Z,8.02
2023-05-19T14:17:16.875Z,10.15
2023-05-19T14:19:43.533Z,11.93
2023-05-19T14:22:10.269Z,7.13
2023-05-19T14:24:37.273Z,5.53
2023-05-19T14:27:04.043Z,8.32
2023-05-19T14:29:34.111Z,4.70
2023-05-19T14:32:01.142Z,4.63
2023-05-19T14:34:27.901Z,5.85
2023-05-19T14:36:54.580Z,6.35
2023-05-19T14:39:21.280Z,4.45
2023-05-19T14:41:50.982Z,5.15
2023-05-19T14:44:17.730Z,5.30
2023-05-19T14:46:44.452Z,4.72
2023-05-19T14:49:11.761Z,8.88
2023-05-19T14:51:38.428Z,10.40
2023-05-19T14:54:05.150Z,6.82
2023-05-19T14:56:31.777Z,7.57
2023-05-19T14:58:58.879Z,5.55
2023-05-19T15:01:25.959Z,6.05
2023-05-19T15:03:53.987Z,5.75
2023-05-19T15:06:20.695Z,7.18
2023-05-19T15:08:47.539Z,3.70
2023-05-19T15:11:14.217Z,3.85
2023-05-19T15:13:41.069Z,6.65
2023-05-19T15:16:17.327Z,6.15
2023-05-19T15:18:44.704Z,3.42
2023-05-19T15:21:11.439Z,6.00
2023-05-19T15:23:38.080Z,7.82
2023-05-19T15:26:04.707Z,8.45
2023-05-19T15:28:32.189Z,8.73
2023-05-19T15:30:58.914Z,12.85
2023-05-19T15:33:28.033Z,5.85
2023-05-19T15:35:55.019Z,5.63
2023-05-19T15:38:21.799Z,9.23
2023-05-19T15:40:48.453Z,7.63
2023-05-19T15:43:15.158Z,17.00
2023-05-19T15:45:41.893Z,5.03
2023-05-19T15:48:08.811Z,7.78
2023-05-19T15:50:36.152Z,8.48
2023-05-19T15:53:03.464Z,9.73
2023-05-19T15:55:30.200Z,11.80
2023-05-19T15:57:56.903Z,11.45
2023-05-19T16:00:23.694Z,13.35
2023-05-19T16:02:50.680Z,8.52
2023-05-19T16:05:17.749Z,7.75
2023-05-19T16:07:45.058Z,6.13
2023-05-19T16:10:11.796Z,15.38
2023-05-19T16:12:38.457Z,7.18
2023-05-19T16:15:05.092Z,6.85
2023-05-19T16:17:31.897Z,6.60
2023-05-19T16:19:58.658Z,8.90
2023-05-19T16:22:25.589Z,14.13
2023-05-19T16:24:52.266Z,4.38
2023-05-19T16:27:19.015Z,12.15
2023-05-19T16:29:45.721Z,8.07
2023-05-19T16:32:12.477Z,8.13
2023-05-19T16:34:39.301Z,10.18
2023-05-19T16:37:05.960Z,5.75
2023-05-19T16:39:32.751Z,11.07
2023-05-19T16:41:59.491Z,8.20
2023-05-19T16:44:26.408Z,10.88
2023-05-19T16:46:53.082Z,5.30
2023-05-19T16:49:19.707Z,9.52
2023-05-19T16:51:48.261Z,8.18
2023-05-19T16:54:15.773Z,8.82
2023-05-19T16:56:42.447Z,3.80
2023-05-19T16:59:09.078Z,11.23
2023-05-19T17:01:35.806Z,8.38
2023-05-19T17:04:02.586Z,7.68
2023-05-19T17:06:29.267Z,10.40
2023-05-19T17:08:56.055Z,7.65
2023-05-19T17:11:22.804Z,24.15
2023-05-19T17:13:49.485Z,12.95
2023-05-19T17:16:16.284Z,8.48
2023-05-19T17:18:43.903Z,19.55
2023-05-19T17:21:10.871Z,23.10
2023-05-19T17:23:38.287Z,6.97
2023-05-19T17:26:05.024Z,10.20
2023-05-19T17:28:31.768Z,9.63
2023-05-19T17:30:58.478Z,14.18
2023-05-19T17:33:25.244Z,6.78
2023-05-19T17:35:52.006Z,8.07
2023-05-19T17:38:18.710Z,7.28
2023-05-19T17:40:45.499Z,15.18
2023-05-19T17:43:12.137Z,10.85
2023-05-19T17:45:38.824Z,13.95
2023-05-19T17:48:05.715Z,8.55
2023-05-19T17:50:33.221Z,10.52
2023-05-19T17:53:00.125Z,10.65
2023-05-19T17:55:30.050Z,8.45
2023-05-19T17:57:56.830Z,10.43
2023-05-19T18:00:23.893Z,11.45
2023-05-19T18:02:50.662Z,5.65
2023-05-19T18:05:17.404Z,7.07
2023-05-19T18:07:44.086Z,8.75
2023-05-19T18:10:11.151Z,7.15
2023-05-19T18:12:37.873Z,7.60
2023-05-19T18:15:04.553Z,6.32
2023-05-19T18:17:31.310Z,11.52
2023-05-19T18:19:58.017Z,6.38
2023-05-19T18:22:24.691Z,7.90
2023-05-19T18:24:52.163Z,6.78
2023-05-19T18:27:18.869Z,4.15
2023-05-19T18:29:45.669Z,9.02
2023-05-19T18:32:14.620Z,8.77
2023-05-19T18:34:41.540Z,4.85
2023-05-19T18:37:08.375Z,9.68
2023-05-19T18:39:39.334Z,13.60
2023-05-19T18:42:06.187Z,5.90
2023-05-19T18:44:33.969Z,4.75
2023-05-19T18:47:00.815Z,10.73
2023-05-19T18:49:27.483Z,4.53
2023-05-19T18:51:54.300Z,5.00
2023-05-19T18:54:23.651Z,8.40
2023-05-19T18:56:50.513Z,6.57
2023-05-19T18:59:21.055Z,4.38
2023-05-19T19:01:55.148Z,6.30
2023-05-19T19:04:22.193Z,10.57
2023-05-19T19:06:48.963Z,9.02
2023-05-19T19:09:15.886Z,7.30
2023-05-19T19:11:50.224Z,5.55
2023-05-19T19:14:16.895Z,4.82
2023-05-19T19:16:43.742Z,8.65
2023-05-19T19:19:10.492Z,5.25
2023-05-19T19:21:37.401Z,4.82
2023-05-19T19:24:04.224Z,7.35
2023-05-19T19:26:31.054Z,4.75
2023-05-19T19:28:57.744Z,6.05
2023-05-19T19:31:26.294Z,3.72
2023-05-19T19:33:53.108Z,7.13
2023-05-19T19:36:20.061Z,4.38
2023-05-19T19:38:46.854Z,5.00
2023-05-19T19:41:13.722Z,3.85
2023-05-19T19:43:40.575Z,11.07
2023-05-19T19:46:09.213Z,10.02
2023-05-19T19:48:36.234Z,3.50
2023-05-19T19:51:02.945Z,10.18
2023-05-19T19:53:29.596Z,4.53
2023-05-19T19:55:56.252Z,11.40
2023-05-19T19:58:22.930Z,5.53
2023-05-19T20:00:49.783Z,6.57
2023-05-19T20:03:16.521Z,5.80
2023-05-19T20:05:44.010Z,3.47
2023-05-19T20:08:10.868Z,9.43
2023-05-19T20:10:37.555Z,5.05
2023-05-19T20:13:04.295Z,10.35
2023-05-19T20:15:31.758Z,6.43
2023-05-19T20:17:58.564Z,8.65
2023-05-19T20:20:25.469Z,7.18
2023-05-19T20:22:52.136Z,7.63
2023-05-19T20:25:18.880Z,5.20
2023-05-19T20:27:45.688Z,4.85
2023-05-19T20:30:12.367Z,6.80
2023-05-19T20:32:39.751Z,9.43
2023-05-19T20:35:07.016Z,4.72
2023-05-19T20:37:33.678Z,7.00
2023-05-19T20:40:00.507Z,7.78
2023-05-19T20:42:27.315Z,4.80
2023-05-19T20:44:54.035Z,11.35
2023-05-19T20:47:21.151Z,7.65
2023-05-19T20:49:48.427Z,10.98
2023-05-19T20:52:15.265Z,9.45
2023-05-19T20:54:43.722Z,8.50
2023-05-19T20:57:10.527Z,8.18
2023-05-19T20:59:37.231Z,5.53
2023-05-19T21:02:04.374Z,10.10
2023-05-19T21:04:33.164Z,6.05
2023-05-19T21:07:00.020Z,5.68
2023-05-19T21:09:26.761Z,9.45
2023-05-19T21:11:53.693Z,8.45
2023-05-19T21:14:20.481Z,7.72
2023-05-19T21:16:47.224Z,5.55
2023-05-19T21:19:14.026Z,5.60
2023-05-19T21:21:42.877Z,6.95
2023-05-19T21:24:11.493Z,4.85
2023-05-19T21:26:38.186Z,7.88
2023-05-19T21:29:04.836Z,5.78
2023-05-19T21:31:31.579Z,10.75
2023-05-19T21:33:58.384Z,11.80
2023-05-19T21:36:25.053Z,7.53
2023-05-19T21:38:51.720Z,6.40
2023-05-19T21:41:18.477Z,14.07
2023-05-19T21:43:45.325Z,9.48
2023-05-19T21:46:12.086Z,18.80
2023-05-19T21:48:38.787Z,9.38
2023-05-19T21:51:06.370Z,8.75
2023-05-19T21:53:33.094Z,7.88
2023-05-19T21:55:59.768Z,9.57
2023-05-19T21:58:26.498Z,9.70
2023-05-19T22:00:54.411Z,12.73
2023-05-19T22:03:21.782Z,9.82
2023-05-19T22:05:48.630Z,12.00
2023-05-19T22:08:15.314Z,11.43
2023-05-19T22:10:42.009Z,8.73
2023-05-19T22:13:08.739Z,7.03
2023-05-19T22:15:35.493Z,8.02
2023-05-19T22:18:02.237Z,11.38
2023-05-19T22:20:28.908Z,14.57
2023-05-19T22:22:55.696Z,10.38
2023-05-19T22:25:22.458Z,11.65
2023-05-19T22:27:49.216Z,7.40
2023-05-19T22:30:16.485Z,9.13
2023-05-19T22:32:43.336Z,14.93
2023-05-19T22:35:10.866Z,14.63
2023-05-19T22:37:37.635Z,6.85
2023-05-19T22:40:04.296Z,7.95
2023-05-19T22:42:31.112Z,7.97
2023-05-19T22:44:57.750Z,5.82
2023-05-19T22:47:24.564Z,6.35
2023-05-19T22:49:51.335Z,9.90
2023-05-19T22:52:18.020Z,6.30
2023-05-19T22:54:44.682Z,10.05
2023-05-19T22:57:11.798Z,15.40
2023-05-19T22:59:38.558Z,8.80
2023-05-19T23:02:05.328Z,5.95
2023-05-19T23:04:32.019Z,12.07
2023-05-19T23:06:58.807Z,7.75
2023-05-19T23:09:27.253Z,6.93
2023-05-19T23:11:53.982Z,5.93
2023-05-19T23:14:21.974Z,6.90
2023-05-19T23:16:48.680Z,9.20
2023-05-19T23:19:15.495Z,6.53
2023-05-19T23:21:42.294Z,8.30
2023-05-19T23:24:08.903Z,7.70
2023-05-19T23:26:35.936Z,7.57
2023-05-19T23:29:02.613Z,9.65
2023-05-19T23:31:29.412Z,4.38
2023-05-19T23:33:56.264Z,6.57
2023-05-19T23:36:23.271Z,7.40
2023-05-19T23:38:49.955Z,8.93
2023-05-19T23:41:16.657Z,5.10
2023-05-19T23:43:43.300Z,9.55
2023-05-19T23:46:10.028Z,5.95
2023-05-19T23:48:36.799Z,8.98
2023-05-19T23:51:03.584Z,12.82
2023-05-19T23:53:30.264Z,8.70
2023-05-19T23:55:58.566Z,10.32
2023-05-19T23:58:25.480Z,8.50
